sensor_id;sensor_type;location;lat;lon;timestamp;pressure;altitude;pressure_sealevel;temperature;humidity
29331;BME280;16331;52.528;13.342;2023-05-25T00:01:18;159327.75;;;13.18;100.00
29331;BME280;16331;52.528;13.342;2023-05-25T00:03:44;159330.53;;;13.19;100.00
29331;BME280;16331;52.528;13.342;2023-05-25T00:06:10;159311.25;;;13.12;100.00
29331;BME280;16331;52.528;13.342;2023-05-25T00:08:38;159311.25;;;13.12;100.00
29331;BME280;16331;52.528;13.342;2023-05-25T00:11:05;159312.66;;;13.12;100.00
29331;BME280;16331;52.528;13.342;2023-05-25T00:13:31;159304.41;;;13.09;100.00
29331;BME280;16331;52.528;13.342;2023-05-25T00:15:57;159304.41;;;13.09;100.00
29331;BME280;16331;52.528;13.342;2023-05-25T00:18:23;159305.75;;;13.09;100.00
29331;BME280;16331;52.528;13.342;2023-05-25T00:20:50;159311.25;;;13.12;100.00
29331;BME280;16331;52.528;13.342;2023-05-25T00:23:19;159322.28;;;13.16;100.00
29331;BME280;16331;52.528;13.342;2023-05-25T00:25:46;159336.00;;;13.21;100.00
29331;BME280;16331;52.528;13.342;2023-05-25T00:28:12;159344.28;;;13.24;100.00
29331;BME280;16331;52.528;13.342;2023-05-25T00:30:38;159360.78;;;13.30;100.00
29331;BME280;16331;52.528;13.342;2023-05-25T00:33:04;159370.44;;;13.33;100.00
29331;BME280;16331;52.528;13.342;2023-05-25T00:35:30;159345.63;;;13.24;100.00
29331;BME280;16331;52.528;13.342;2023-05-25T00:37:56;159340.13;;;13.22;100.00
29331;BME280;16331;52.528;13.342;2023-05-25T00:40:23;159322.28;;;13.16;100.00
29331;BME280;16331;52.528;13.342;2023-05-25T00:42:50;159334.66;;;13.20;100.00
29331;BME280;16331;52.528;13.342;2023-05-25T00:45:17;159315.38;;;13.13;100.00
29331;BME280;16331;52.528;13.342;2023-05-25T00:47:43;159320.91;;;13.15;100.00
29331;BME280;16331;52.528;13.342;2023-05-25T00:50:14;159322.28;;;13.16;100.00
29331;BME280;16331;52.528;13.342;2023-05-25T00:52:41;159298.91;;;13.07;100.00
29331;BME280;16331;52.528;13.342;2023-05-25T00:55:08;159279.56;;;13.00;100.00
29331;BME280;16331;52.528;13.342;2023-05-25T00:57:36;159268.59;;;12.96;100.00
29331;BME280;16331;52.528;13.342;2023-05-25T01:00:06;159257.56;;;12.92;100.00
29331;BME280;16331;52.528;13.342;2023-05-25T01:02:53;159260.34;;;12.93;100.00
29331;BME280;16331;52.528;13.342;2023-05-25T01:05:23;159235.56;;;12.84;100.00
29331;BME280;16331;52.528;13.342;2023-05-25T01:07:52;159227.34;;;12.81;100.00
29331;BME280;16331;52.528;13.342;2023-05-25T01:10:21;159219.09;;;12.78;100.00
29331;BME280;16331;52.528;13.342;2023-05-25T01:12:50;159199.84;;;12.71;100.00
29331;BME280;16331;52.528;13.342;2023-05-25T01:15:19;159213.59;;;12.76;100.00
29331;BME280;16331;52.528;13.342;2023-05-25T01:17:46;159214.97;;;12.76;100.00
29331;BME280;16331;52.528;13.342;2023-05-25T01:20:18;159197.09;;;12.70;100.00
29331;BME280;16331;52.528;13.342;2023-05-25T01:25:30;159169.59;;;12.60;100.00
29331;BME280;16331;52.528;13.342;2023-05-25T01:28:05;159142.16;;;12.50;100.00
29331;BME280;16331;52.528;13.342;2023-05-25T01:30:32;159142.16;;;12.50;100.00
29331;BME280;16331;52.528;13.342;2023-05-25T01:33:01;159153.13;;;12.54;100.00
29331;BME280;16331;52.528;13.342;2023-05-25T01:35:28;159175.13;;;12.62;100.00
29331;BME280;16331;52.528;13.342;2023-05-25T01:37:57;159176.50;;;12.62;100.00
29331;BME280;16331;52.528;13.342;2023-05-25T01:40:23;159173.72;;;12.61;100.00
29331;BME280;16331;52.528;13.342;2023-05-25T01:42:49;159187.47;;;12.66;100.00
29331;BME280;16331;52.528;13.342;2023-05-25T01:45:15;159158.63;;;12.56;100.00
29331;BME280;16331;52.528;13.342;2023-05-25T01:48:04;159190.25;;;12.67;100.00
29331;BME280;16331;52.528;13.342;2023-05-25T01:50:59;159164.13;;;12.58;100.00
29331;BME280;16331;52.528;13.342;2023-05-25T01:53:35;159158.63;;;12.56;100.00
29331;BME280;16331;52.528;13.342;2023-05-25T01:56:06;159136.63;;;12.48;100.00
29331;BME280;16331;52.528;13.342;2023-05-25T01:58:38;159161.34;;;12.57;100.00
29331;BME280;16331;52.528;13.342;2023-05-25T02:01:11;159161.34;;;12.57;100.00
29331;BME280;16331;52.528;13.342;2023-05-25T02:03:40;159142.16;;;12.50;100.00
29331;BME280;16331;52.528;13.342;2023-05-25T02:06:07;159129.75;;;12.45;100.00
29331;BME280;16331;52.528;13.342;2023-05-25T02:08:33;159117.38;;;12.41;100.00
29331;BME280;16331;52.528;13.342;2023-05-25T02:11:00;159100.91;;;12.35;100.00
29331;BME280;16331;52.528;13.342;2023-05-25T02:13:27;159084.44;;;12.29;100.00
29331;BME280;16331;52.528;13.342;2023-05-25T02:15:53;159106.41;;;12.37;100.00
29331;BME280;16331;52.528;13.342;2023-05-25T02:18:19;159105.03;;;12.36;100.00
29331;BME280;16331;52.528;13.342;2023-05-25T02:20:45;159065.16;;;12.22;100.00
29331;BME280;16331;52.528;13.342;2023-05-25T02:23:12;159052.81;;;12.17;100.00
29331;BME280;16331;52.528;13.342;2023-05-25T02:25:38;159076.19;;;12.26;100.00
29331;BME280;16331;52.528;13.342;2023-05-25T02:28:04;159070.69;;;12.24;100.00
29331;BME280;16331;52.528;13.342;2023-05-25T02:30:30;159054.19;;;12.18;100.00
29331;BME280;16331;52.528;13.342;2023-05-25T02:32:56;159062.44;;;12.21;100.00
29331;BME280;16331;52.528;13.342;2023-05-25T02:35:22;159055.53;;;12.18;100.00
29331;BME280;16331;52.528;13.342;2023-05-25T02:37:48;159056.94;;;12.19;100.00
29331;BME280;16331;52.528;13.342;2023-05-25T02:40:15;159041.84;;;12.13;100.00
29331;BME280;16331;52.528;13.342;2023-05-25T02:42:41;159040.47;;;12.13;100.00
29331;BME280;16331;52.528;13.342;2023-05-25T02:45:09;159044.56;;;12.14;100.00
29331;BME280;16331;52.528;13.342;2023-05-25T02:47:36;159006.13;;;12.00;100.00
29331;BME280;16331;52.528;13.342;2023-05-25T02:50:05;158981.38;;;11.91;100.00
29331;BME280;16331;52.528;13.342;2023-05-25T02:52:31;159010.25;;;12.02;100.00
29331;BME280;16331;52.528;13.342;2023-05-25T02:54:58;159000.63;;;11.98;100.00
29331;BME280;16331;52.528;13.342;2023-05-25T02:57:25;158989.59;;;11.94;100.00
29331;BME280;16331;52.528;13.342;2023-05-25T02:59:51;158960.78;;;11.84;100.00
29331;BME280;16331;52.528;13.342;2023-05-25T03:02:17;158982.75;;;11.92;100.00
29331;BME280;16331;52.528;13.342;2023-05-25T03:04:45;158985.47;;;11.93;100.00
29331;BME280;16331;52.528;13.342;2023-05-25T03:07:12;158953.94;;;11.81;100.00
29331;BME280;16331;52.528;13.342;2023-05-25T03:09:38;158940.19;;;11.76;100.00
29331;BME280;16331;52.528;13.342;2023-05-25T03:12:05;158984.16;;;11.92;100.00
29331;BME280;16331;52.528;13.342;2023-05-25T03:14:31;158981.38;;;11.91;100.00
29331;BME280;16331;52.528;13.342;2023-05-25T03:16:57;159004.75;;;12.00;100.00
29331;BME280;16331;52.528;13.342;2023-05-25T03:19:23;158981.38;;;11.91;100.00
29331;BME280;16331;52.528;13.342;2023-05-25T03:21:49;159011.56;;;12.02;100.00
29331;BME280;16331;52.528;13.342;2023-05-25T03:24:15;158997.88;;;11.97;100.00
29331;BME280;16331;52.528;13.342;2023-05-25T03:26:41;158974.53;;;11.89;100.00
29331;BME280;16331;52.528;13.342;2023-05-25T03:29:07;158970.41;;;11.87;100.00
29331;BME280;16331;52.528;13.342;2023-05-25T03:31:33;158963.50;;;11.85;100.00
29331;BME280;16331;52.528;13.342;2023-05-25T03:33:59;158937.41;;;11.75;100.00
29331;BME280;16331;52.528;13.342;2023-05-25T03:36:25;158951.16;;;11.80;100.00
29331;BME280;16331;52.528;13.342;2023-05-25T03:38:58;158960.78;;;11.84;100.00
29331;BME280;16331;52.528;13.342;2023-05-25T03:41:24;158971.78;;;11.88;100.00
29331;BME280;16331;52.528;13.342;2023-05-25T03:43:52;158973.13;;;11.88;100.00
29331;BME280;16331;52.528;13.342;2023-05-25T03:46:18;158975.91;;;11.89;100.00
29331;BME280;16331;52.528;13.342;2023-05-25T03:48:45;159006.13;;;12.00;100.00
29331;BME280;16331;52.528;13.342;2023-05-25T03:51:11;158992.38;;;11.95;100.00
29331;BME280;16331;52.528;13.342;2023-05-25T03:53:37;159022.59;;;12.06;100.00
29331;BME280;16331;52.528;13.342;2023-05-25T03:56:04;159006.13;;;12.00;100.00
29331;BME280;16331;52.528;13.342;2023-05-25T03:58:30;159037.69;;;12.12;100.00
29331;BME280;16331;52.528;13.342;2023-05-25T04:00:56;159054.19;;;12.18;100.00
29331;BME280;16331;52.528;13.342;2023-05-25T04:03:23;159124.28;;;12.43;100.00
29331;BME280;16331;52.528;13.342;2023-05-25T04:05:49;159151.72;;;12.53;100.00
29331;BME280;16331;52.528;13.342;2023-05-25T04:08:16;159132.53;;;12.46;100.00
29331;BME280;16331;52.528;13.342;2023-05-25T04:10:45;159166.88;;;12.59;100.00
29331;BME280;16331;52.528;13.342;2023-05-25T04:13:12;159177.84;;;12.63;100.00
29331;BME280;16331;52.528;13.342;2023-05-25T04:15:38;159128.41;;;12.45;100.00
29331;BME280;16331;52.528;13.342;2023-05-25T04:18:07;159094.06;;;12.32;100.00
29331;BME280;16331;52.528;13.342;2023-05-25T04:20:33;159098.19;;;12.34;100.00
29331;BME280;16331;52.528;13.342;2023-05-25T04:22:59;159106.41;;;12.37;100.00
29331;BME280;16331;52.528;13.342;2023-05-25T04:25:26;159106.41;;;12.37;100.00
29331;BME280;16331;52.528;13.342;2023-05-25T04:27:52;159133.91;;;12.47;100.00
29331;BME280;16331;52.528;13.342;2023-05-25T04:30:18;159120.16;;;12.42;100.00
29331;BME280;16331;52.528;13.342;2023-05-25T04:32:44;159117.38;;;12.41;100.00
29331;BME280;16331;52.528;13.342;2023-05-25T04:35:11;159131.13;;;12.46;100.00
29331;BME280;16331;52.528;13.342;2023-05-25T04:37:40;159139.38;;;12.49;100.00
29331;BME280;16331;52.528;13.342;2023-05-25T04:40:07;159133.91;;;12.47;100.00
29331;BME280;16331;52.528;13.342;2023-05-25T04:42:36;159188.84;;;12.67;100.00
29331;BME280;16331;52.528;13.342;2023-05-25T04:45:07;159271.34;;;12.97;100.00
29331;BME280;16331;52.528;13.342;2023-05-25T04:47:37;159373.16;;;13.34;100.00
29331;BME280;16331;52.528;13.342;2023-05-25T04:50:07;159422.69;;;13.52;100.00
29331;BME280;16331;52.528;13.342;2023-05-25T04:52:34;159462.59;;;13.67;100.00
29331;BME280;16331;52.528;13.342;2023-05-25T04:55:00;159385.53;;;13.39;100.00
29331;BME280;16331;52.528;13.342;2023-05-25T04:57:27;159352.53;;;13.27;100.00
29331;BME280;16331;52.528;13.342;2023-05-25T04:59:55;159307.16;;;13.10;100.00
29331;BME280;16331;52.528;13.342;2023-05-25T05:02:21;159326.41;;;13.17;100.00
29331;BME280;16331;52.528;13.342;2023-05-25T05:04:47;159381.41;;;13.37;100.00
29331;BME280;16331;52.528;13.342;2023-05-25T05:07:17;159371.75;;;13.34;100.00
29331;BME280;16331;52.528;13.342;2023-05-25T05:09:43;159411.66;;;13.48;100.00
29331;BME280;16331;52.528;13.342;2023-05-25T05:12:09;159430.94;;;13.55;100.00
29331;BME280;16331;52.528;13.342;2023-05-25T05:14:37;159419.91;;;13.51;100.00
29331;BME280;16331;52.528;13.342;2023-05-25T05:17:05;159381.41;;;13.37;100.00
29331;BME280;16331;52.528;13.342;2023-05-25T05:19:32;159410.31;;;13.48;100.00
29331;BME280;16331;52.528;13.342;2023-05-25T05:21:59;159436.44;;;13.57;100.00
29331;BME280;16331;52.528;13.342;2023-05-25T05:24:25;159465.31;;;13.68;100.00
29331;BME280;16331;52.528;13.342;2023-05-25T05:26:53;159474.94;;;13.71;100.00
29331;BME280;16331;52.528;13.342;2023-05-25T05:29:20;159521.72;;;13.88;100.00
29331;BME280;16331;52.528;13.342;2023-05-25T05:31:46;159542.34;;;13.96;100.00
29331;BME280;16331;52.528;13.342;2023-05-25T05:34:12;159525.84;;;13.90;100.00
29331;BME280;16331;52.528;13.342;2023-05-25T05:36:39;159587.78;;;14.12;100.00
29331;BME280;16331;52.528;13.342;2023-05-25T05:39:05;159521.72;;;13.88;100.00
29331;BME280;16331;52.528;13.342;2023-05-25T05:41:31;159647.03;;;14.34;100.00
29331;BME280;16331;52.528;13.342;2023-05-25T05:43:58;159664.94;;;14.40;100.00
29331;BME280;16331;52.528;13.342;2023-05-25T05:46:26;159647.03;;;14.34;100.00
29331;BME280;16331;52.528;13.342;2023-05-25T05:48:54;159689.69;;;14.49;100.00
29331;BME280;16331;52.528;13.342;2023-05-25T05:51:20;159725.50;;;14.63;100.00
29331;BME280;16331;52.528;13.342;2023-05-25T05:53:47;159770.91;;;14.79;100.00
29331;BME280;16331;52.528;13.342;2023-05-25T05:56:17;159757.19;;;14.74;100.00
29331;BME280;16331;52.528;13.342;2023-05-25T05:58:44;159783.34;;;14.84;100.00
29331;BME280;16331;52.528;13.342;2023-05-25T06:01:15;159871.44;;;15.16;100.00
29331;BME280;16331;52.528;13.342;2023-05-25T06:03:43;159995.50;;;15.61;100.00
29331;BME280;16331;52.528;13.342;2023-05-25T06:06:10;160158.16;;;16.20;100.00
29331;BME280;16331;52.528;13.342;2023-05-25T06:08:37;160246.47;;;16.52;100.00
29331;BME280;16331;52.528;13.342;2023-05-25T06:11:03;160185.75;;;16.30;100.00
29331;BME280;16331;52.528;13.342;2023-05-25T06:13:29;160063.06;;;15.85;100.00
29331;BME280;16331;52.528;13.342;2023-05-25T06:15:56;160188.50;;;16.31;100.00
29331;BME280;16331;52.528;13.342;2023-05-25T06:18:22;160152.69;;;16.18;100.00
29331;BME280;16331;52.528;13.342;2023-05-25T06:20:48;160171.94;;;16.25;100.00
29331;BME280;16331;52.528;13.342;2023-05-25T06:23:14;160214.69;;;16.41;100.00
29331;BME280;16331;52.528;13.342;2023-05-25T06:25:45;160229.94;;;16.46;100.00
29331;BME280;16331;52.528;13.342;2023-05-25T06:28:11;160280.94;;;16.65;100.00
29331;BME280;16331;52.528;13.342;2023-05-25T06:30:37;160274.06;;;16.62;100.00
29331;BME280;16331;52.528;13.342;2023-05-25T06:33:05;160265.78;;;16.59;100.00
29331;BME280;16331;52.528;13.342;2023-05-25T06:35:33;160134.75;;;16.12;100.00
29331;BME280;16331;52.528;13.342;2023-05-25T06:37:59;160149.88;;;16.17;100.00
29331;BME280;16331;52.528;13.342;2023-05-25T06:40:25;160227.19;;;16.45;100.00
29331;BME280;16331;52.528;13.342;2023-05-25T06:42:51;160210.56;;;16.39;100.00
29331;BME280;16331;52.528;13.342;2023-05-25T06:45:17;160202.28;;;16.36;100.00
29331;BME280;16331;52.528;13.342;2023-05-25T06:47:43;160347.16;;;16.89;100.00
29331;BME280;16331;52.528;13.342;2023-05-25T06:50:11;160449.28;;;17.26;100.00
29331;BME280;16331;52.528;13.342;2023-05-25T06:52:37;160543.19;;;17.60;100.00
29331;BME280;16331;52.528;13.342;2023-05-25T06:55:03;160550.06;;;17.63;100.00
29331;BME280;16331;52.528;13.342;2023-05-25T06:57:30;160602.53;;;17.82;100.00
29331;BME280;16331;52.528;13.342;2023-05-25T06:59:57;160606.66;;;17.83;100.00
29331;BME280;16331;52.528;13.342;2023-05-25T07:02:23;160688.16;;;18.13;100.00
29331;BME280;16331;52.528;13.342;2023-05-25T07:04:49;160591.50;;;17.78;100.00
29331;BME280;16331;52.528;13.342;2023-05-25T07:07:16;160623.28;;;17.89;100.00
29331;BME280;16331;52.528;13.342;2023-05-25T07:09:42;160663.31;;;18.04;100.00
29331;BME280;16331;52.528;13.342;2023-05-25T07:12:08;160696.44;;;18.16;100.00
29331;BME280;16331;52.528;13.342;2023-05-25T07:14:36;160700.59;;;18.17;100.00
29331;BME280;16331;52.528;13.342;2023-05-25T07:17:02;160758.66;;;18.38;100.00
29331;BME280;16331;52.528;13.342;2023-05-25T07:19:28;160739.25;;;18.31;100.00
29331;BME280;16331;52.528;13.342;2023-05-25T07:21:56;160771.06;;;18.43;100.00
29331;BME280;16331;52.528;13.342;2023-05-25T07:24:22;160772.47;;;18.43;100.00
29331;BME280;16331;52.528;13.342;2023-05-25T07:26:48;160652.25;;;18.00;100.00
29331;BME280;16331;52.528;13.342;2023-05-25T07:29:14;160671.59;;;18.07;100.00
29331;BME280;16331;52.528;13.342;2023-05-25T07:31:40;160732.34;;;18.29;100.00
29331;BME280;16331;52.528;13.342;2023-05-25T07:34:06;160750.31;;;18.35;100.00
29331;BME280;16331;52.528;13.342;2023-05-25T07:36:33;160708.88;;;18.20;100.00
29331;BME280;16331;52.528;13.342;2023-05-25T07:39:00;160657.78;;;18.02;100.00
29331;BME280;16331;52.528;13.342;2023-05-25T07:41:26;160701.97;;;18.18;100.00
29331;BME280;16331;52.528;13.342;2023-05-25T07:43:52;160786.28;;;18.48;100.00
29331;BME280;16331;52.528;13.342;2023-05-25T07:46:18;160827.72;;;18.63;100.00
29331;BME280;16331;52.528;13.342;2023-05-25T07:48:50;160842.94;;;18.69;100.00
29331;BME280;16331;52.528;13.342;2023-05-25T07:51:16;160805.59;;;18.55;100.00
29331;BME280;16331;52.528;13.342;2023-05-25T07:53:42;160724.06;;;18.26;100.00
29331;BME280;16331;52.528;13.342;2023-05-25T07:56:08;160718.53;;;18.24;100.00
29331;BME280;16331;52.528;13.342;2023-05-25T07:58:35;160784.91;;;18.48;100.00
29331;BME280;16331;52.528;13.342;2023-05-25T08:01:02;160876.06;;;18.81;100.00
29331;BME280;16331;52.528;13.342;2023-05-25T08:03:29;160928.56;;;19.00;100.00
29331;BME280;16331;52.528;13.342;2023-05-25T08:05:55;160834.66;;;18.66;100.00
29331;BME280;16331;52.528;13.342;2023-05-25T08:08:21;160750.31;;;18.35;100.00
29331;BME280;16331;52.528;13.342;2023-05-25T08:10:49;160881.59;;;18.83;100.00
29331;BME280;16331;52.528;13.342;2023-05-25T08:13:17;161033.72;;;19.38;100.00
29331;BME280;16331;52.528;13.342;2023-05-25T08:15:43;160939.66;;;19.04;100.00
29331;BME280;16331;52.528;13.342;2023-05-25T08:18:10;160910.59;;;18.94;100.00
29331;BME280;16331;52.528;13.342;2023-05-25T08:20:36;160725.41;;;18.26;100.00
29331;BME280;16331;52.528;13.342;2023-05-25T08:23:02;160840.13;;;18.68;100.00
29331;BME280;16331;52.528;13.342;2023-05-25T08:25:29;160900.97;;;18.90;100.00
29331;BME280;16331;52.528;13.342;2023-05-25T08:27:55;160945.19;;;19.06;100.00
29331;BME280;16331;52.528;13.342;2023-05-25T08:30:21;160876.06;;;18.81;100.00
29331;BME280;16331;52.528;13.342;2023-05-25T08:32:49;160867.78;;;18.78;100.00
29331;BME280;16331;52.528;13.342;2023-05-25T08:35:15;160842.94;;;18.69;100.00
29331;BME280;16331;52.528;13.342;2023-05-25T08:37:42;160761.41;;;18.39;100.00
29331;BME280;16331;52.528;13.342;2023-05-25T08:40:14;160744.78;;;18.33;100.00
29331;BME280;16331;52.528;13.342;2023-05-25T08:42:42;160778.00;;;18.45;100.00
29331;BME280;16331;52.528;13.342;2023-05-25T08:45:09;160822.22;;;18.61;100.00
29331;BME280;16331;52.528;13.342;2023-05-25T08:47:40;160802.84;;;18.54;100.00
29331;BME280;16331;52.528;13.342;2023-05-25T08:50:11;160928.56;;;19.00;100.00
29331;BME280;16331;52.528;13.342;2023-05-25T08:52:44;160906.47;;;18.92;100.00
29331;BME280;16331;52.528;13.342;2023-05-25T08:55:11;160970.06;;;19.15;100.00
29331;BME280;16331;52.528;13.342;2023-05-25T08:58:01;160928.56;;;19.00;98.31
29331;BME280;16331;52.528;13.342;2023-05-25T09:00:37;160927.22;;;19.00;97.45
29331;BME280;16331;52.528;13.342;2023-05-25T09:03:15;161032.31;;;19.38;95.51
29331;BME280;16331;52.528;13.342;2023-05-25T09:05:45;161053.03;;;19.45;88.92
29331;BME280;16331;52.528;13.342;2023-05-25T09:08:12;161098.69;;;19.62;91.77
29331;BME280;16331;52.528;13.342;2023-05-25T09:10:38;161036.47;;;19.39;93.19
29331;BME280;16331;52.528;13.342;2023-05-25T09:13:05;160994.91;;;19.24;95.01
29331;BME280;16331;52.528;13.342;2023-05-25T09:15:32;160958.97;;;19.11;95.10
29331;BME280;16331;52.528;13.342;2023-05-25T09:17:58;160938.25;;;19.04;94.41
29331;BME280;16331;52.528;13.342;2023-05-25T09:20:25;160964.53;;;19.13;93.64
29331;BME280;16331;52.528;13.342;2023-05-25T09:22:56;161108.38;;;19.65;90.77
29331;BME280;16331;52.528;13.342;2023-05-25T09:25:23;161242.56;;;20.14;85.58
29331;BME280;16331;52.528;13.342;2023-05-25T09:27:51;161219.03;;;20.05;85.75
29331;BME280;16331;52.528;13.342;2023-05-25T09:30:17;161293.78;;;20.33;87.61
29331;BME280;16331;52.528;13.342;2023-05-25T09:32:43;161333.91;;;20.47;87.15
29331;BME280;16331;52.528;13.342;2023-05-25T09:35:11;161339.41;;;20.49;86.97
29331;BME280;16331;52.528;13.342;2023-05-25T09:37:38;161302.06;;;20.36;86.12
29331;BME280;16331;52.528;13.342;2023-05-25T09:40:05;161055.84;;;19.46;92.32
29331;BME280;16331;52.528;13.342;2023-05-25T09:42:33;161066.88;;;19.50;96.19
29331;BME280;16331;52.528;13.342;2023-05-25T09:44:59;161250.84;;;20.17;86.98
29331;BME280;16331;52.528;13.342;2023-05-25T09:47:26;161181.66;;;19.92;85.97
29331;BME280;16331;52.528;13.342;2023-05-25T09:49:55;161109.72;;;19.66;84.75
29331;BME280;16331;52.528;13.342;2023-05-25T09:52:22;161076.56;;;19.54;87.08
29331;BME280;16331;52.528;13.342;2023-05-25T09:54:50;161141.53;;;19.77;83.57
29331;BME280;16331;52.528;13.342;2023-05-25T09:57:19;161169.22;;;19.87;85.69
29331;BME280;16331;52.528;13.342;2023-05-25T09:59:46;161171.97;;;19.88;86.48
29331;BME280;16331;52.528;13.342;2023-05-25T10:02:13;161180.25;;;19.91;84.15
29331;BME280;16331;52.528;13.342;2023-05-25T10:04:39;161188.53;;;19.94;83.62
29331;BME280;16331;52.528;13.342;2023-05-25T10:07:06;161256.41;;;20.19;82.17
29331;BME280;16331;52.528;13.342;2023-05-25T10:09:37;161235.59;;;20.11;82.83
29331;BME280;16331;52.528;13.342;2023-05-25T10:12:06;161281.28;;;20.28;85.23
29331;BME280;16331;52.528;13.342;2023-05-25T10:14:35;161183.06;;;19.92;81.92
29331;BME280;16331;52.528;13.342;2023-05-25T10:17:05;161170.63;;;19.88;82.92
29331;BME280;16331;52.528;13.342;2023-05-25T10:19:59;161277.13;;;20.27;83.69
29331;BME280;16331;52.528;13.342;2023-05-25T10:22:39;161261.94;;;20.21;87.05
29331;BME280;16331;52.528;13.342;2023-05-25T10:25:23;161293.78;;;20.33;86.91
29331;BME280;16331;52.528;13.342;2023-05-25T10:28:01;161302.06;;;20.36;84.94
29331;BME280;16331;52.528;13.342;2023-05-25T10:30:27;161321.41;;;20.43;82.77
29331;BME280;16331;52.528;13.342;2023-05-25T10:32:54;161322.81;;;20.43;82.75
29331;BME280;16331;52.528;13.342;2023-05-25T10:35:22;161223.16;;;20.07;88.55
29331;BME280;16331;52.528;13.342;2023-05-25T10:37:51;161181.66;;;19.92;90.05
29331;BME280;16331;52.528;13.342;2023-05-25T10:40:21;161390.63;;;20.68;87.04
29331;BME280;16331;52.528;13.342;2023-05-25T10:42:49;161533.22;;;21.19;80.41
29331;BME280;16331;52.528;13.342;2023-05-25T10:45:16;161554.03;;;21.27;79.63
29331;BME280;16331;52.528;13.342;2023-05-25T10:47:43;161321.41;;;20.43;86.02
29331;BME280;16331;52.528;13.342;2023-05-25T10:50:23;161349.09;;;20.53;87.72
29331;BME280;16331;52.528;13.342;2023-05-25T10:55:40;161523.56;;;21.16;81.04
29331;BME280;16331;52.528;13.342;2023-05-25T10:58:11;161357.41;;;20.56;84.45
29331;BME280;16331;52.528;13.342;2023-05-25T11:00:38;161705.03;;;21.82;78.13
29331;BME280;16331;52.528;13.342;2023-05-25T11:03:06;162058.50;;;23.10;66.96
29331;BME280;16331;52.528;13.342;2023-05-25T11:05:38;162349.91;;;24.15;61.28
29331;BME280;16331;52.528;13.342;2023-05-25T11:08:08;162039.06;;;23.03;63.30
29331;BME280;16331;52.528;13.342;2023-05-25T11:10:49;162100.06;;;23.25;64.66
29331;BME280;16331;52.528;13.342;2023-05-25T11:13:37;162283.25;;;23.91;58.29
29331;BME280;16331;52.528;13.342;2023-05-25T11:18:56;162474.84;;;24.60;56.86
29331;BME280;16331;52.528;13.342;2023-05-25T11:24:05;162336.03;;;24.10;57.22
29331;BME280;16331;52.528;13.342;2023-05-25T11:26:39;162098.66;;;23.24;58.82
29331;BME280;16331;52.528;13.342;2023-05-25T11:29:16;162286.00;;;23.92;58.39
29331;BME280;16331;52.528;13.342;2023-05-25T11:31:45;162538.72;;;24.83;53.36
29331;BME280;16331;52.528;13.342;2023-05-25T11:34:17;162233.28;;;23.73;57.36
29331;BME280;16331;52.528;13.342;2023-05-25T11:36:46;162172.25;;;23.51;58.49
29331;BME280;16331;52.528;13.342;2023-05-25T11:39:12;161994.69;;;22.86;61.29
29331;BME280;16331;52.528;13.342;2023-05-25T11:41:53;162091.75;;;23.22;60.15
29331;BME280;16331;52.528;13.342;2023-05-25T11:44:28;161954.50;;;22.72;61.81
29331;BME280;16331;52.528;13.342;2023-05-25T11:46:56;162265.19;;;23.84;59.66
29331;BME280;16331;52.528;13.342;2023-05-25T11:49:23;162655.41;;;25.25;54.21
29331;BME280;16331;52.528;13.342;2023-05-25T11:51:51;162597.06;;;25.04;55.38
29331;BME280;16331;52.528;13.342;2023-05-25T11:54:22;162711.00;;;25.45;53.27
29331;BME280;16331;52.528;13.342;2023-05-25T11:56:48;162473.44;;;24.60;56.16
29331;BME280;16331;52.528;13.342;2023-05-25T11:59:15;162147.31;;;23.42;63.15
29331;BME280;16331;52.528;13.342;2023-05-25T12:01:41;162019.63;;;22.96;69.31
29331;BME280;16331;52.528;13.342;2023-05-25T12:04:10;161875.44;;;22.43;73.30
29331;BME280;16331;52.528;13.342;2023-05-25T12:06:36;161788.16;;;22.12;79.25
29331;BME280;16331;52.528;13.342;2023-05-25T12:09:03;161552.63;;;21.26;88.94
29331;BME280;16331;52.528;13.342;2023-05-25T12:11:35;161415.53;;;20.77;95.04
29331;BME280;16331;52.528;13.342;2023-05-25T12:14:04;161338.06;;;20.49;99.63
29331;BME280;16331;52.528;13.342;2023-05-25T12:16:33;161326.97;;;20.45;100.00
29331;BME280;16331;52.528;13.342;2023-05-25T12:19:00;161288.22;;;20.31;100.00
29331;BME280;16331;52.528;13.342;2023-05-25T12:21:27;161219.03;;;20.05;100.00
29331;BME280;16331;52.528;13.342;2023-05-25T12:23:54;161277.13;;;20.27;100.00
29331;BME280;16331;52.528;13.342;2023-05-25T12:26:20;161637.09;;;21.57;95.71
29331;BME280;16331;52.528;13.342;2023-05-25T12:29:05;161609.41;;;21.47;93.95
29331;BME280;16331;52.528;13.342;2023-05-25T12:31:33;161529.06;;;21.18;94.89
29331;BME280;16331;52.528;13.342;2023-05-25T12:34:13;161562.31;;;21.30;93.47
29331;BME280;16331;52.528;13.342;2023-05-25T12:36:50;161610.78;;;21.47;92.63
29331;BME280;16331;52.528;13.342;2023-05-25T12:39:33;161447.38;;;20.88;93.88
29331;BME280;16331;52.528;13.342;2023-05-25T12:42:04;161332.50;;;20.47;95.54
29331;BME280;16331;52.528;13.342;2023-05-25T12:44:35;161351.84;;;20.54;98.32
29331;BME280;16331;52.528;13.342;2023-05-25T12:47:14;162003.00;;;22.89;84.34
29331;BME280;16331;52.528;13.342;2023-05-25T12:49:42;162249.91;;;23.79;75.93